createdAt,value
2023-03-11T00:04:31.587Z,55.85
2023-03-11T00:09:34.143Z,56.50
2023-03-11T00:14:35.594Z,56.14
2023-03-11T00:19:37.112Z,56.20
2023-03-11T00:24:38.621Z,55.89
2023-03-11T00:29:40.092Z,55.96
2023-03-11T00:34:41.861Z,56.17
2023-03-11T00:39:43.410Z,55.83
2023-03-11T00:44:46.122Z,57.00
2023-03-11T00:49:47.976Z,56.88
2023-03-11T00:54:50.095Z,56.61
2023-03-11T00:59:51.945Z,56.79
2023-03-11T01:04:55.090Z,56.67
2023-03-11T01:09:56.612Z,56.68
2023-03-11T01:14:58.482Z,56.76
2023-03-11T01:20:00.051Z,56.69
2023-03-11T01:25:01.611Z,57.93
2023-03-11T01:30:05.942Z,58.18
2023-03-11T01:35:07.711Z,58.01
2023-03-11T01:40:24.168Z,58.15
2023-03-11T01:45:50.505Z,56.99
2023-03-11T01:50:56.953Z,57.34
2023-03-11T01:55:58.669Z,57.57
2023-03-11T02:01:02.500Z,57.53
2023-03-11T02:06:09.871Z,58.06
2023-03-11T02:11:17.759Z,57.85
2023-03-11T02:16:19.410Z,57.52
2023-03-11T02:21:32.015Z,57.23
2023-03-11T02:26:43.185Z,57.03
2023-03-11T02:31:45.787Z,57.30
2023-03-11T02:36:47.937Z,57.06
2023-03-11T02:41:50.422Z,56.82
2023-03-11T02:46:53.220Z,56.19
2023-03-11T02:51:56.369Z,56.68
2023-03-11T02:56:58.338Z,56.52
2023-03-11T03:02:01.796Z,56.90
2023-03-11T03:07:03.994Z,56.86
2023-03-11T03:12:06.593Z,56.40
2023-03-11T03:17:09.516Z,56.51
2023-03-11T03:22:11.135Z,57.28
2023-03-11T03:27:12.664Z,57.00
2023-03-11T03:32:15.525Z,56.46
2023-03-11T03:37:17.371Z,56.43
2023-03-11T03:42:19.650Z,57.47
2023-03-11T03:47:21.204Z,56.96
2023-03-11T03:52:22.927Z,57.16
2023-03-11T03:57:24.648Z,57.48
2023-03-11T04:02:26.492Z,57.52
2023-03-11T04:07:29.817Z,57.11
2023-03-11T04:12:31.595Z,57.17
2023-03-11T04:17:33.478Z,58.64
2023-03-11T04:22:36.882Z,58.84
2023-03-11T04:27:39.436Z,60.12
2023-03-11T04:32:41.715Z,59.95
2023-03-11T04:37:44.609Z,59.49
2023-03-11T04:42:46.551Z,60.19
2023-03-11T04:47:52.832Z,60.51
2023-03-11T04:52:54.854Z,60.26
2023-03-11T04:57:57.397Z,59.83
2023-03-11T05:02:59.149Z,60.70
2023-03-11T05:08:00.680Z,60.26
2023-03-11T05:13:06.107Z,59.69
2023-03-11T05:18:11.588Z,60.26
2023-03-11T05:23:14.068Z,60.64
2023-03-11T05:28:16.300Z,61.29
2023-03-11T05:33:24.278Z,61.21
2023-03-11T05:38:27.025Z,61.04
2023-03-11T05:43:28.849Z,60.50
2023-03-11T05:48:31.241Z,59.16
2023-03-11T05:53:33.721Z,58.21
2023-03-11T05:58:35.296Z,57.34
2023-03-11T06:03:39.518Z,57.31
2023-03-11T06:08:41.368Z,57.74
2023-03-11T06:13:43.094Z,57.57
2023-03-11T06:18:45.887Z,58.29
2023-03-11T06:23:47.847Z,58.43
2023-03-11T06:28:51.992Z,58.65
2023-03-11T06:33:54.292Z,60.53
2023-03-11T06:38:55.876Z,60.90
2023-03-11T06:43:59.772Z,61.22
2023-03-11T06:49:02.976Z,61.23
2023-03-11T06:54:05.541Z,61.05
2023-03-11T06:59:08.064Z,61.07
2023-03-11T07:04:10.623Z,60.96
2023-03-11T07:09:14.536Z,61.28
2023-03-11T07:14:19.442Z,61.52
2023-03-11T07:19:25.517Z,61.53
2023-03-11T07:24:27.066Z,61.34
2023-03-11T07:29:28.555Z,60.14
2023-03-11T07:34:30.066Z,60.46
2023-03-11T07:39:32.641Z,60.52
2023-03-11T07:44:34.435Z,61.47
2023-03-11T07:49:35.918Z,61.13
2023-03-11T07:54:37.452Z,61.49
2023-03-11T07:59:38.937Z,61.54
2023-03-11T08:04:40.600Z,62.38
2023-03-11T08:09:42.052Z,62.50
2023-03-11T08:14:43.699Z,61.41
2023-03-11T08:19:45.233Z,61.59
2023-03-11T08:24:50.929Z,61.96
2023-03-11T08:29:52.489Z,61.41
2023-03-11T08:34:54.239Z,62.09
2023-03-11T08:39:55.830Z,61.44
2023-03-11T08:44:57.273Z,60.96
2023-03-11T08:49:58.757Z,61.06
2023-03-11T08:55:00.288Z,61.30
2023-03-11T09:00:01.885Z,61.03
2023-03-11T09:05:03.870Z,62.49
2023-03-11T09:10:06.679Z,61.49
2023-03-11T09:15:09.832Z,60.50
2023-03-11T09:20:13.941Z,60.66
2023-03-11T09:25:15.480Z,60.40
2023-03-11T09:30:17.255Z,61.30
2023-03-11T09:35:18.913Z,60.22
2023-03-11T09:40:23.095Z,60.23
2023-03-11T09:45:34.525Z,60.13
2023-03-11T09:51:14.617Z,60.22
2023-03-11T09:56:20.273Z,59.85
2023-03-11T10:01:35.803Z,59.47
2023-03-11T10:06:39.768Z,58.79
2023-03-11T10:11:56.336Z,59.60
2023-03-11T10:17:25.748Z,59.04
2023-03-11T10:22:45.414Z,57.88
2023-03-11T10:27:58.711Z,57.52
2023-03-11T10:33:07.724Z,58.03
2023-03-11T10:38:21.629Z,57.63
2023-03-11T10:43:35.316Z,57.73
2023-03-11T10:48:36.777Z,57.88
2023-03-11T10:53:50.512Z,58.45
2023-03-11T10:58:51.963Z,57.78
2023-03-11T11:03:55.574Z,56.88
2023-03-11T11:09:15.329Z,57.11
2023-03-11T11:14:16.852Z,56.23
2023-03-11T11:19:19.826Z,56.85
2023-03-11T11:24:27.681Z,54.67
2023-03-11T11:29:31.835Z,55.96
2023-03-11T11:34:35.003Z,56.88
2023-03-11T11:39:58.735Z,56.53
2023-03-11T11:45:12.340Z,56.21
2023-03-11T11:50:36.919Z,56.03
2023-03-11T11:55:44.311Z,56.79
2023-03-11T12:01:01.612Z,56.24
2023-03-11T12:06:17.548Z,54.63
2023-03-11T12:11:55.131Z,54.64
2023-03-11T12:17:04.922Z,54.28
2023-03-11T12:22:25.148Z,53.59
2023-03-11T12:27:33.174Z,54.26
2023-03-11T12:32:39.840Z,53.70
2023-03-11T12:37:41.475Z,54.01
2023-03-11T12:42:42.981Z,52.59
2023-03-11T12:47:44.555Z,52.02
2023-03-11T12:52:54.738Z,52.82
2023-03-11T12:58:11.499Z,54.55
2023-03-11T13:03:16.888Z,54.65
2023-03-11T13:08:23.786Z,54.45
2023-03-11T13:13:25.292Z,53.97
2023-03-11T13:18:30.505Z,54.39
2023-03-11T13:23:39.177Z,55.25
2023-03-11T13:29:18.389Z,54.54
2023-03-11T13:34:31.908Z,54.40
2023-03-11T13:39:43.624Z,53.11
2023-03-11T13:44:47.447Z,53.23
2023-03-11T13:50:00.941Z,54.15
2023-03-11T13:55:07.276Z,54.55
2023-03-11T14:00:18.459Z,54.52
2023-03-11T14:05:32.271Z,54.51
2023-03-11T14:10:33.805Z,54.28
2023-03-11T14:16:02.394Z,54.60
2023-03-11T14:21:06.906Z,53.03
2023-03-11T14:26:13.560Z,54.66
2023-03-11T14:31:36.221Z,54.43
2023-03-11T14:36:55.853Z,55.16
2023-03-11T14:42:22.287Z,55.66
2023-03-11T14:47:42.626Z,54.78
2023-03-11T14:52:59.185Z,55.19
2023-03-11T14:58:05.867Z,54.76
2023-03-11T15:03:20.598Z,56.34
2023-03-11T15:08:26.432Z,55.44
2023-03-11T15:13:27.906Z,56.42
2023-03-11T15:18:31.905Z,55.79
2023-03-11T15:23:35.594Z,55.96
2023-03-11T15:28:38.303Z,55.42
2023-03-11T15:33:40.744Z,57.13
2023-03-11T15:38:42.282Z,56.75
2023-03-11T15:43:48.464Z,56.43
2023-03-11T15:48:49.948Z,54.31
2023-03-11T15:53:51.434Z,54.90
2023-03-11T15:58:52.975Z,54.40
2023-03-11T16:03:55.713Z,56.64
2023-03-11T16:08:57.278Z,57.13
2023-03-11T16:13:59.422Z,57.37
2023-03-11T16:19:00.909Z,56.70
2023-03-11T16:24:04.191Z,57.33
2023-03-11T16:29:18.190Z,57.43
2023-03-11T16:34:21.104Z,57.69
2023-03-11T16:39:22.596Z,58.00
2023-03-11T16:44:24.138Z,58.45
2023-03-11T16:49:25.642Z,57.21
2023-03-11T16:54:27.137Z,57.72
2023-03-11T16:59:28.743Z,57.69
2023-03-11T17:04:30.478Z,57.24
2023-03-11T17:09:32.951Z,57.09
2023-03-11T17:14:35.988Z,57.75
2023-03-11T17:19:37.445Z,57.63
2023-03-11T17:24:39.353Z,58.29
2023-03-11T17:29:42.600Z,59.13
2023-03-11T17:34:44.300Z,59.23
2023-03-11T17:39:45.933Z,60.17
2023-03-11T17:44:51.910Z,59.57
2023-03-11T17:49:53.981Z,59.52
2023-03-11T17:54:55.455Z,60.76
2023-03-11T17:59:56.952Z,62.04
2023-03-11T18:04:58.460Z,62.39
2023-03-11T18:09:59.958Z,63.67
2023-03-11T18:15:03.367Z,63.44
2023-03-11T18:20:05.225Z,63.40
2023-03-11T18:25:07.455Z,63.96
2023-03-11T18:30:09.576Z,63.67
2023-03-11T18:35:11.300Z,64.67
2023-03-11T18:40:13.152Z,64.93
2023-03-11T18:45:14.634Z,64.57
2023-03-11T18:50:16.483Z,64.34
2023-03-11T18:55:18.909Z,64.83
2023-03-11T19:00:21.051Z,64.18
2023-03-11T19:05:22.535Z,65.36
2023-03-11T19:10:24.091Z,66.08
2023-03-11T19:15:25.590Z,65.95
2023-03-11T19:20:27.130Z,66.21
2023-03-11T19:25:28.949Z,64.64
2023-03-11T19:30:30.492Z,65.92
2023-03-11T19:35:32.106Z,65.19
2023-03-11T19:40:33.644Z,65.50
2023-03-11T19:45:35.170Z,65.78
2023-03-11T19:50:36.671Z,65.06
2023-03-11T19:55:42.716Z,65.23
2023-03-11T20:00:44.630Z,65.35
2023-03-11T20:05:48.486Z,64.56
2023-03-11T20:10:51.755Z,65.18
2023-03-11T20:15:53.324Z,64.94
2023-03-11T20:20:54.889Z,64.40
2023-03-11T20:25:56.507Z,64.99
2023-03-11T20:30:58.165Z,64.73
2023-03-11T20:36:08.888Z,64.83
2023-03-11T20:41:10.527Z,64.61
2023-03-11T20:46:12.646Z,64.79
2023-03-11T20:51:17.173Z,64.81
2023-03-11T20:56:24.170Z,64.27
2023-03-11T21:01:30.553Z,64.73
2023-03-11T21:06:38.134Z,64.83
2023-03-11T21:11:39.720Z,65.39
2023-03-11T21:16:41.270Z,64.21
2023-03-11T21:21:42.959Z,64.28
2023-03-11T21:26:44.452Z,64.88
2023-03-11T21:31:46.083Z,64.65
2023-03-11T21:36:47.791Z,65.05
2023-03-11T21:41:49.428Z,65.25
2023-03-11T21:46:51.147Z,64.85
2023-03-11T21:51:52.719Z,64.49
2023-03-11T21:56:54.317Z,64.02
2023-03-11T22:01:55.957Z,64.40
2023-03-11T22:06:57.673Z,64.05
2023-03-11T22:11:59.265Z,63.48
2023-03-11T22:17:00.867Z,63.69
2023-03-11T22:22:02.502Z,63.63
2023-03-11T22:27:04.063Z,64.86
2023-03-11T22:32:05.710Z,64.34
2023-03-11T22:37:07.533Z,64.25
2023-03-11T22:42:11.405Z,64.52
2023-03-11T22:47:12.972Z,64.07
2023-03-11T22:52:14.460Z,64.02
2023-03-11T22:57:15.998Z,64.01
2023-03-11T23:02:17.452Z,63.86
2023-03-11T23:07:18.960Z,64.69
2023-03-11T23:12:20.493Z,64.92
2023-03-11T23:17:21.999Z,64.35
2023-03-11T23:22:23.621Z,64.71
2023-03-11T23:27:25.216Z,64.43
2023-03-11T23:32:26.760Z,64.53
2023-03-11T23:37:28.358Z,64.81
2023-03-11T23:42:33.054Z,64.46
2023-03-11T23:47:34.541Z,63.22
2023-03-11T23:52:36.015Z,63.14
2023-03-11T23:57:37.771Z,62.27
